Time;durP1;ratioP1;P1;durP2;ratioP2;P2;SDS_P1;SDS_P2;PMS_P1;PMS_P2;Temp;Humidity;BMP_temperature;BMP_pressure;BME280_temperature;BME280_humidity;BME280_pressure;Samples;Min_cycle;Max_cycle;Signal;HPM_P1;HPM_P2
2022/05/20 00:00:46;;;;;;;21.65;19.35;;;;;;;-150.07;42.61;62679.97;5014843;28;20026;-76
2022/05/20 00:03:13;;;;;;;21.85;17.05;;;;;;;-150.07;43.04;62700.91;5015021;28;20356;-76
2022/05/20 00:05:40;;;;;;;24.77;18.00;;;;;;;-150.07;42.97;62663.22;5015338;28;20500;-78
2022/05/20 00:08:08;;;;;;;24.95;16.85;;;;;;;-150.07;43.32;62675.78;5018333;28;20033;-76
2022/05/20 00:10:35;;;;;;;22.90;17.58;;;;;;;-150.07;42.99;62765.81;5019921;28;20076;-76
2022/05/20 00:13:02;;;;;;;23.48;18.75;;;;;;;-150.07;43.43;62671.59;5020585;28;20391;-76
2022/05/20 00:15:30;;;;;;;22.70;17.55;;;;;;;-150.07;43.22;62734.41;5020105;28;20030;-78
2022/05/20 00:17:57;;;;;;;31.05;19.50;;;;;;;-150.07;42.85;63398.00;5019798;28;20033;-76
2022/05/20 00:20:27;;;;;;;23.90;18.55;;;;;;;-150.07;43.15;62726.03;5022988;28;20034;-76
2022/05/20 00:22:54;;;;;;;21.55;18.85;;;;;;;-150.07;42.04;62776.28;5026689;28;20042;-76
2022/05/20 00:28:08;;;;;;;22.73;20.33;;;;;;;-150.07;41.98;63517.34;5013732;28;20029;-76
2022/05/20 00:30:36;;;;;;;24.15;19.63;;;;;;;-150.07;41.39;62901.88;5013626;28;20030;-76
2022/05/20 00:33:03;;;;;;;23.98;19.85;;;;;;;-150.07;41.86;62828.59;5007464;28;20049;-77
2022/05/20 00:35:30;;;;;;;28.60;21.70;;;;;;;-150.07;41.76;62659.03;4996037;28;20027;-76
2022/05/20 00:37:57;;;;;;;25.42;22.20;;;;;;;-150.07;42.15;62839.06;5007059;28;20128;-74
2022/05/20 00:40:26;;;;;;;33.90;23.55;;;;;;;-150.07;41.74;62535.56;5012431;28;20034;-76
2022/05/20 00:43:09;;;;;;;28.95;22.98;;;;;;;-150.07;41.54;62832.78;5012589;28;20033;-76
2022/05/20 00:45:36;;;;;;;27.00;23.13;;;;;;;-150.07;41.33;62679.97;5012048;28;20068;-76
2022/05/20 00:48:03;;;;;;;25.38;21.45;;;;;;;-150.07;41.20;62891.41;4991856;28;20471;-76
2022/05/20 00:50:31;;;;;;;44.38;23.00;;;;;;;-150.07;40.82;62813.94;5008119;28;20391;-76
2022/05/20 00:52:58;;;;;;;29.40;20.98;;;;;;;-150.07;40.80;62889.31;4993234;28;20023;-76
2022/05/20 00:55:27;;;;;;;26.48;22.52;;;;;;;-150.07;40.87;62899.78;4992999;28;20022;-76
2022/05/20 00:58:00;;;;;;;27.65;23.77;;;;;;;-150.07;40.95;62880.94;5011102;28;20498;-77
2022/05/20 01:00:29;;;;;;;38.17;24.92;;;;;;;-150.07;40.84;62952.09;5012906;28;20080;-76
2022/05/20 01:03:04;;;;;;;33.53;24.00;;;;;;;-150.07;41.26;62996.06;5012981;28;20205;-76
2022/05/20 01:05:45;;;;;;;28.67;21.40;;;;;;;-150.07;41.62;62818.13;5013551;28;20490;-76
2022/05/20 01:08:19;;;;;;;35.22;23.48;;;;;;;-150.07;42.04;63029.56;4993689;28;20038;-76
2022/05/20 01:10:47;;;;;;;29.35;24.98;;;;;;;-150.07;41.60;62809.75;4993457;28;20109;-76
2022/05/20 01:13:18;;;;;;;24.65;21.92;;;;;;;-150.07;41.70;63086.06;4992741;28;20038;-77
2022/05/20 01:15:45;;;;;;;50.55;24.73;;;;;;;-150.07;41.85;62887.22;5010211;28;20029;-76
2022/05/20 01:18:14;;;;;;;28.08;23.20;;;;;;;-150.07;41.58;63142.59;5012290;28;20080;-76
2022/05/20 01:20:44;;;;;;;34.92;23.85;;;;;;;-150.07;41.62;63783.22;5012371;28;20026;-75
2022/05/20 01:23:15;;;;;;;27.77;22.73;;;;;;;-150.07;41.49;63182.38;5011403;28;20065;-76
2022/05/20 01:25:46;;;;;;;25.98;22.08;;;;;;;-150.07;42.51;63144.69;5012119;28;20042;-75
2022/05/20 01:28:13;;;;;;;22.15;18.67;;;;;;;-150.07;42.84;63161.44;5012640;28;20025;-75
2022/05/20 01:30:44;;;;;;;26.05;19.65;;;;;;;-150.07;43.02;63626.22;5012293;28;20475;-75
2022/05/20 01:33:12;;;;;;;24.23;21.42;;;;;;;-150.07;43.86;63123.75;5012160;28;20118;-76
2022/05/20 01:35:46;;;;;;;23.58;19.70;;;;;;;-150.07;44.16;63090.25;5012461;28;20398;-75
2022/05/20 01:38:13;;;;;;;27.67;21.33;;;;;;;-150.07;44.22;63086.06;5011638;28;20054;-75
2022/05/20 01:40:48;;;;;;;25.55;19.80;;;;;;;-150.07;44.06;63096.53;5012337;28;20381;-75
2022/05/20 01:43:40;;;;;;;23.77;20.15;;;;;;;-150.07;43.31;63144.69;5010670;28;20486;-76
2022/05/20 01:46:07;;;;;;;25.98;21.50;;;;;;;-150.07;42.88;63226.34;5009706;28;20052;-75
2022/05/20 01:49:03;;;;;;;34.67;23.05;;;;;;;-150.07;43.68;62941.63;5012003;28;20022;-75
2022/05/20 01:51:35;;;;;;;34.80;20.90;;;;;;;-150.07;44.14;62981.41;5019517;28;20045;-76
2022/05/20 01:54:11;;;;;;;31.98;22.52;;;;;;;-150.07;43.40;63010.72;5012340;28;20568;-76
2022/05/20 01:56:44;;;;;;;28.92;22.13;;;;;;;-150.07;43.57;62868.38;5012496;28;20168;-78
2022/05/20 01:59:39;;;;;;;25.45;22.63;;;;;;;-150.07;42.81;63027.47;5013445;28;20080;-75
2022/05/20 02:02:17;;;;;;;27.65;21.50;;;;;;;-150.07;42.53;63127.94;5015243;28;20545;-76
2022/05/20 02:04:52;;;;;;;22.92;20.52;;;;;;;-150.07;42.51;63161.44;5016643;28;20034;-76
2022/05/20 02:07:24;;;;;;;32.55;22.77;;;;;;;-150.07;41.99;63130.03;5012349;28;20022;-76
2022/05/20 02:10:16;;;;;;;24.55;20.65;;;;;;;-150.07;42.15;63324.72;5011832;28;20553;-76
2022/05/20 02:12:49;;;;;;;26.27;22.42;;;;;;;-150.07;42.15;63136.31;5012789;28;20014;-77
2022/05/20 02:15:22;;;;;;;25.85;23.05;;;;;;;-150.07;42.18;63004.44;5011739;28;20057;-76
2022/05/20 02:17:55;;;;;;;27.35;24.35;;;;;;;-150.07;43.40;62878.84;5011381;28;20036;-76
2022/05/20 02:20:38;;;;;;;30.10;22.80;;;;;;;-150.07;43.21;62952.09;5011558;28;20026;-76
2022/05/20 02:23:13;;;;;;;27.35;24.50;;;;;;;-150.07;42.72;62826.50;5011523;28;20149;-77
2022/05/20 02:25:46;;;;;;;25.63;21.63;;;;;;;-150.07;42.65;62937.44;5011429;28;20374;-76
2022/05/20 02:28:30;;;;;;;28.48;22.85;;;;;;;-150.07;42.77;62910.25;5010971;28;20053;-77
2022/05/20 02:30:58;;;;;;;29.20;22.73;;;;;;;-150.07;42.84;62918.59;5011441;28;20017;-76
2022/05/20 02:33:27;;;;;;;32.17;25.63;;;;;;;-150.07;43.66;62801.38;5011828;28;20060;-77
2022/05/20 02:36:03;;;;;;;26.33;22.88;;;;;;;-150.07;44.66;62847.44;5010562;28;20053;-77
2022/05/20 02:38:30;;;;;;;28.92;24.80;;;;;;;-150.07;46.27;62569.03;5003838;28;20113;-77
2022/05/20 02:40:57;;;;;;;28.45;23.98;;;;;;;-150.07;46.73;62765.81;5001004;28;20033;-77
2022/05/20 02:43:24;;;;;;;24.42;22.00;;;;;;;-150.07;47.77;62633.94;5002420;28;20022;-78
2022/05/20 02:45:52;;;;;;;28.73;22.20;;;;;;;-150.07;49.01;62851.63;5004328;28;20029;-77
2022/05/20 02:48:21;;;;;;;20.25;17.77;;;;;;;-150.07;51.42;62870.47;4991000;28;20064;-77
2022/05/20 02:50:51;;;;;;;24.15;19.15;;;;;;;-150.07;53.26;62899.78;4991052;28;20030;-77
2022/05/20 02:53:19;;;;;;;20.20;16.92;;;;;;;-150.07;53.88;62684.16;4989721;28;20121;-77
2022/05/20 02:55:46;;;;;;;28.80;24.13;;;;;;;-150.07;52.30;62841.16;5005852;28;20351;-77
2022/05/20 03:04:10;;;;;;;61.88;27.48;;;;;;;-150.07;52.02;62667.41;4991392;28;20034;-76
2022/05/20 03:06:46;;;;;;;33.35;27.55;;;;;;;-150.07;50.83;62667.41;4991467;28;20039;-76
2022/05/20 03:09:16;;;;;;;32.22;28.55;;;;;;;-150.07;49.74;62583.69;4990983;28;20566;-77
2022/05/20 03:11:44;;;;;;;32.65;29.20;;;;;;;-150.07;48.50;62675.78;4991062;28;20101;-76
2022/05/20 03:14:13;;;;;;;36.70;30.58;;;;;;;-150.07;48.21;62885.13;4992556;28;20030;-76
2022/05/20 03:16:41;;;;;;;36.97;28.58;;;;;;;-150.07;47.75;62895.59;5010934;28;20018;-77
2022/05/20 03:19:08;;;;;;;32.60;27.05;;;;;;;-150.07;48.51;62968.84;5010558;28;20038;-76
2022/05/20 03:21:37;;;;;;;28.98;25.20;;;;;;;-150.07;50.14;62826.50;5013125;28;20026;-77
2022/05/20 03:24:09;;;;;;;23.73;21.23;;;;;;;-150.07;50.89;62705.09;5014269;28;20049;-78
2022/05/20 03:26:36;;;;;;;22.60;20.23;;;;;;;-150.07;50.51;63287.03;4994612;28;20034;-76
2022/05/20 03:29:05;;;;;;;23.23;19.08;;;;;;;-150.07;50.35;62847.44;4993201;28;20045;-78
2022/05/20 03:31:37;;;;;;;20.65;18.65;;;;;;;-150.07;49.71;62774.19;4994437;28;20026;-77
2022/05/20 03:34:08;;;;;;;20.10;18.02;;;;;;;-150.07;49.77;62679.97;4994713;28;20030;-77
2022/05/20 03:36:38;;;;;;;19.85;18.05;;;;;;;-150.07;50.91;63119.56;4995280;28;20117;-76
2022/05/20 03:39:05;;;;;;;;;;;;;;;-150.07;50.06;62744.88;4994804;28;20057;-77
2022/05/20 03:41:32;;;;;;;21.27;16.40;;;;;;;-150.07;49.72;62763.72;4994785;28;20363;-76
2022/05/20 03:44:00;;;;;;;20.95;18.08;;;;;;;-150.07;50.28;62416.25;4994418;28;20026;-77
2022/05/20 03:46:26;;;;;;;20.05;16.38;;;;;;;-150.07;49.80;62642.31;5013361;28;20095;-76
2022/05/20 03:48:53;;;;;;;18.92;16.92;;;;;;;-150.07;49.85;62579.50;5013783;28;20033;-76
2022/05/20 03:51:20;;;;;;;18.35;16.42;;;;;;;-150.07;48.81;62499.97;5013573;28;20030;-77
2022/05/20 03:53:47;;;;;;;20.95;17.05;;;;;;;-150.07;47.97;63255.66;5013574;28;20018;-76
2022/05/20 03:56:14;;;;;;;20.25;15.98;;;;;;;-150.07;48.07;62594.16;5011942;28;20034;-76
2022/05/20 03:58:41;;;;;;;18.90;16.88;;;;;;;-150.07;48.21;62537.66;5013490;28;20042;-76
2022/05/20 04:03:57;;;;;;;20.05;17.00;;;;;;;-150.07;48.93;62512.53;5013762;28;20068;-76
2022/05/20 04:06:24;;;;;;;18.70;15.23;;;;;;;-150.07;48.99;63366.59;5013455;28;20022;-76
2022/05/20 04:08:51;;;;;;;22.05;13.93;;;;;;;-150.07;48.30;62964.66;5013698;28;20087;-76
2022/05/20 04:11:18;;;;;;;16.48;14.23;;;;;;;-150.07;48.09;62945.81;5013613;28;20371;-76
2022/05/20 04:13:45;;;;;;;17.10;13.77;;;;;;;-150.07;49.55;62583.69;5012904;28;20033;-76
2022/05/20 04:16:14;;;;;;;15.77;13.00;;;;;;;-150.07;51.26;62541.84;5013293;28;20486;-76
2022/05/20 04:18:41;;;;;;;18.48;14.00;;;;;;;-150.07;50.16;62742.78;5011734;28;20030;-77
2022/05/20 04:21:10;;;;;;;14.57;12.68;;;;;;;-150.07;49.19;62788.81;5013480;28;20026;-76
2022/05/20 04:23:40;;;;;;;15.80;14.15;;;;;;;-150.07;48.49;62860.00;5013004;28;20100;-76
2022/05/20 04:26:07;;;;;;;23.33;14.60;;;;;;;-150.07;47.50;63000.25;5013724;28;20064;-77
2022/05/20 04:28:34;;;;;;;16.15;13.80;;;;;;;-150.07;46.10;63056.78;5014241;28;20013;-76
2022/05/20 04:31:04;;;;;;;12.93;10.95;;;;;;;-150.07;46.27;63111.19;5013313;28;20033;-76
2022/05/20 04:33:31;;;;;;;15.15;12.25;;;;;;;-150.07;45.50;63806.25;5013371;28;20041;-77
2022/05/20 04:35:58;;;;;;;12.35;11.13;;;;;;;-150.07;45.26;63266.09;5014948;28;20017;-76
2022/05/20 04:38:25;;;;;;;14.55;11.57;;;;;;;-150.07;45.83;63718.31;5014167;28;20050;-76
2022/05/20 04:49:09;;;;;;;11.90;9.93;;;;;;;-150.07;46.29;63307.97;5012982;28;20139;-77
2022/05/20 04:51:38;;;;;;;12.13;11.07;;;;;;;-150.07;45.03;63222.16;5013816;28;20040;-77
2022/05/20 04:56:52;;;;;;;16.52;11.05;;;;;;;-150.07;43.91;63402.19;5015233;28;20087;-76
2022/05/20 04:59:23;;;;;;;15.55;11.70;;;;;;;-150.07;43.25;63370.78;5015741;28;20029;-77
2022/05/20 05:01:51;;;;;;;18.02;12.05;;;;;;;-150.07;45.19;63155.16;5013920;28;20431;-76
2022/05/20 05:04:21;;;;;;;12.95;11.48;;;;;;;-150.07;46.29;63109.09;5013841;28;20034;-76
2022/05/20 05:06:48;;;;;;;21.35;11.57;;;;;;;-150.07;48.76;62897.69;5012964;28;20030;-76
2022/05/20 05:09:15;;;;;;;12.07;10.50;;;;;;;-150.07;47.53;63140.50;5012809;28;20033;-76
2022/05/20 05:11:42;;;;;;;13.23;11.82;;;;;;;-150.07;47.82;63044.22;5012552;28;20022;-76
2022/05/20 05:14:11;;;;;;;12.02;10.93;;;;;;;-150.07;48.40;62964.66;5012356;28;20391;-77
2022/05/20 05:16:39;;;;;;;14.53;12.63;;;;;;;-150.07;48.19;63067.22;5012593;28;20024;-76
2022/05/20 05:19:07;;;;;;;15.23;11.52;;;;;;;-150.07;47.64;63014.91;5012415;28;20491;-76
2022/05/20 05:21:35;;;;;;;12.45;10.88;;;;;;;-150.07;48.07;62918.59;5012547;28;20127;-76
2022/05/20 05:24:02;;;;;;;16.15;12.40;;;;;;;-150.07;47.24;63004.44;5012340;28;20368;-76
2022/05/20 05:26:31;;;;;;;14.32;11.95;;;;;;;-150.07;46.45;62935.34;5012649;28;20395;-77
2022/05/20 05:29:00;;;;;;;16.23;13.80;;;;;;;-150.07;46.40;63081.88;5012724;28;20026;-76
2022/05/20 05:31:27;;;;;;;17.20;12.67;;;;;;;-150.07;45.51;63163.53;5012730;28;20080;-76
2022/05/20 05:33:54;;;;;;;13.40;12.00;;;;;;;-150.07;46.10;62998.16;5012065;28;20124;-76
2022/05/20 05:36:22;;;;;;;15.18;13.52;;;;;;;-150.07;46.61;62826.50;5012220;28;20489;-76
2022/05/20 05:38:48;;;;;;;17.70;14.20;;;;;;;-150.07;46.42;62947.91;5011936;28;20052;-76
2022/05/20 05:41:18;;;;;;;21.40;13.10;;;;;;;-150.07;45.86;63008.63;5011835;28;20038;-75
2022/05/20 05:43:45;;;;;;;18.53;12.90;;;;;;;-150.07;45.89;62906.06;5011067;28;20026;-76
2022/05/20 05:46:12;;;;;;;16.80;13.55;;;;;;;-150.07;47.14;62613.00;5011689;28;20474;-80
2022/05/20 05:48:39;;;;;;;13.95;12.27;;;;;;;-150.07;46.71;62922.78;5011969;28;20041;-76
2022/05/20 05:51:25;;;;;;;15.38;12.10;;;;;;;-150.07;46.90;62767.91;5011650;28;20030;-76
2022/05/20 05:53:52;;;;;;;21.75;14.40;;;;;;;-150.07;46.91;62939.53;5011546;28;20026;-76
2022/05/20 05:56:19;;;;;;;15.82;12.93;;;;;;;-150.07;46.30;63617.81;5011560;28;20030;-76
2022/05/20 05:58:46;;;;;;;17.30;13.65;;;;;;;-150.07;46.30;62968.84;5010654;28;20033;-77
2022/05/20 06:01:13;;;;;;;16.77;13.65;;;;;;;-150.07;46.36;63035.84;5011893;28;20393;-77
2022/05/20 06:03:40;;;;;;;14.43;12.88;;;;;;;-150.07;46.45;63659.69;5011288;28;20436;-76
2022/05/20 06:06:08;;;;;;;14.82;12.35;;;;;;;-150.07;46.97;62751.16;5011641;28;20025;-76
2022/05/20 06:08:35;;;;;;;15.40;13.70;;;;;;;-150.07;46.69;62575.31;5010848;28;21242;-76
2022/05/20 06:11:02;;;;;;;13.18;11.63;;;;;;;-150.07;46.94;62793.00;5011389;28;20037;-77
2022/05/20 06:13:30;;;;;;;16.85;13.75;;;;;;;-150.07;46.95;62847.44;5011074;28;20117;-76
2022/05/20 06:15:57;;;;;;;18.33;14.27;;;;;;;-150.07;47.10;62872.56;5011170;28;20030;-76
2022/05/20 06:18:26;;;;;;;17.98;12.68;;;;;;;-150.07;46.79;62872.56;5012273;28;20041;-77
2022/05/20 06:20:53;;;;;;;15.20;12.30;;;;;;;-150.07;46.70;62893.50;5011095;28;20080;-76
2022/05/20 06:23:20;;;;;;;13.70;11.85;;;;;;;-150.07;47.12;63391.72;5010880;28;20029;-76
2022/05/20 06:25:47;;;;;;;17.05;12.68;;;;;;;-150.07;46.71;62698.81;5010991;28;20030;-76
2022/05/20 06:28:16;;;;;;;16.05;13.82;;;;;;;-150.07;47.28;63295.41;5011117;28;20081;-80
2022/05/20 06:30:43;;;;;;;14.48;13.07;;;;;;;-150.07;47.34;63462.91;5011128;28;20022;-76
2022/05/20 06:33:12;;;;;;;14.25;12.27;;;;;;;-150.07;46.14;62583.69;5011098;28;20026;-76
2022/05/20 06:41:26;;;;;;;19.00;13.05;;;;;;;-150.07;46.57;62483.22;5012173;28;20105;-76
2022/05/20 06:43:53;;;;;;;13.80;11.73;;;;;;;-150.07;46.41;63594.81;5010509;28;20033;-76
2022/05/20 06:46:20;;;;;;;19.63;11.77;;;;;;;-150.07;45.82;63266.09;5011010;28;20497;-76
2022/05/20 06:48:53;;;;;;;12.50;10.57;;;;;;;-150.07;44.93;63261.94;5010842;28;20133;-76
2022/05/20 06:51:23;;;;;;;11.63;10.40;;;;;;;-150.07;44.17;63010.72;5011274;28;20034;-78
2022/05/20 06:53:52;;;;;;;;;;;;;;;-150.07;43.97;62985.59;5009895;28;20092;-76
2022/05/20 06:56:21;;;;;;;12.23;9.98;;;;;;;-150.07;44.27;62947.91;5014917;28;19923;-76
2022/05/20 06:58:48;;;;;;;16.08;12.00;;;;;;;-150.07;45.15;62621.38;5014904;28;20038;-76
2022/05/20 07:01:15;;;;;;;18.85;12.00;;;;;;;-150.07;45.95;62617.19;5014496;28;20026;-76
2022/05/20 07:03:43;;;;;;;14.65;12.60;;;;;;;-150.07;46.63;62625.56;5014512;28;20486;-76
2022/05/20 07:06:12;;;;;;;16.83;13.55;;;;;;;-150.07;47.07;62820.22;5013617;28;20044;-77
2022/05/20 07:08:40;;;;;;;14.65;13.30;;;;;;;-150.07;47.61;62734.41;5015137;28;20084;-76
2022/05/20 07:11:07;;;;;;;15.07;13.57;;;;;;;-150.07;48.04;62763.72;5013260;28;20038;-76
2022/05/20 07:13:35;;;;;;;22.25;15.20;;;;;;;-150.07;49.23;62596.25;5012599;28;20368;-76
2022/05/20 07:16:01;;;;;;;19.90;14.93;;;;;;;-150.07;49.27;63341.47;5014236;28;20030;-77
2022/05/20 07:18:29;;;;;;;16.48;14.80;;;;;;;-150.07;48.61;62491.59;5014222;28;20109;-76
2022/05/20 07:20:56;;;;;;;19.00;15.00;;;;;;;-150.07;48.08;62772.09;5014178;28;20095;-76
2022/05/20 07:23:25;;;;;;;16.85;15.15;;;;;;;-150.07;47.85;62562.75;5013773;28;20040;-76
2022/05/20 07:25:52;;;;;;;22.00;17.73;;;;;;;-150.07;49.36;62659.03;5013802;28;20041;-76
2022/05/20 07:28:19;;;;;;;17.63;15.85;;;;;;;-150.07;48.79;62646.50;5006847;28;20040;-77
2022/05/20 07:30:46;;;;;;;16.73;14.95;;;;;;;-150.07;49.67;62665.31;5013477;28;20020;-77
2022/05/20 07:33:13;;;;;;;15.02;13.48;;;;;;;-150.07;47.96;62880.94;5012768;28;20438;-76
2022/05/20 07:35:40;;;;;;;15.30;12.82;;;;;;;-150.07;47.47;62788.81;5013359;28;20041;-76
2022/05/20 07:38:08;;;;;;;17.75;14.35;;;;;;;-150.07;48.89;62698.81;5013462;28;20054;-77
2022/05/20 07:40:35;;;;;;;19.95;14.00;;;;;;;-150.07;48.76;62788.81;5004901;28;20490;-76
2022/05/20 07:43:03;;;;;;;16.13;13.45;;;;;;;-150.07;48.04;62587.88;5012529;28;20037;-76
2022/05/20 07:45:30;;;;;;;13.63;11.93;;;;;;;-150.07;47.24;62730.22;5011562;28;20026;-77
2022/05/20 07:47:57;;;;;;;16.98;11.45;;;;;;;-150.07;46.41;62803.47;5012922;28;20076;-77
2022/05/20 07:50:24;;;;;;;15.68;11.55;;;;;;;-150.07;46.46;62822.31;5013089;28;20027;-76
2022/05/20 07:55:43;;;;;;;13.00;11.43;;;;;;;-150.07;45.57;62939.53;5013485;28;20108;-77
2022/05/20 07:58:15;;;;;;;13.82;12.50;;;;;;;-150.07;44.81;63395.91;5013134;28;20367;-77
2022/05/20 08:00:43;;;;;;;14.80;13.30;;;;;;;-150.07;46.00;63456.63;5013356;28;20050;-77
2022/05/20 08:03:14;;;;;;;17.83;11.32;;;;;;;-150.07;46.13;62914.41;5013063;28;20482;-77
2022/05/20 08:05:41;;;;;;;14.80;10.55;;;;;;;-150.07;45.34;62987.69;5012061;28;20030;-77
2022/05/20 08:08:09;;;;;;;11.75;10.65;;;;;;;-150.07;44.36;62855.81;5012887;28;20018;-77
2022/05/20 08:10:38;;;;;;;12.27;10.95;;;;;;;-150.07;44.31;62950.00;5013932;28;20494;-77
2022/05/20 08:13:06;;;;;;;14.60;11.30;;;;;;;-150.07;45.27;62841.16;5012806;28;20084;-76
2022/05/20 08:15:34;;;;;;;12.93;11.48;;;;;;;-150.07;45.39;62966.75;5012250;28;20096;-76
2022/05/20 08:18:01;;;;;;;14.13;10.98;;;;;;;-150.07;45.46;62985.59;5014970;28;20179;-76
2022/05/20 08:20:30;;;;;;;13.13;11.27;;;;;;;-150.07;45.21;63021.19;5012528;28;20379;-77
2022/05/20 08:22:57;;;;;;;13.48;11.18;;;;;;;-150.07;44.61;62958.38;4994142;28;20407;-77
2022/05/20 08:25:26;;;;;;;11.93;9.80;;;;;;;-150.07;44.34;62962.56;5009209;28;20050;-77
2022/05/20 08:27:54;;;;;;;18.65;10.43;;;;;;;-150.07;44.59;63165.63;4994863;28;20037;-76
2022/05/20 08:30:24;;;;;;;13.20;11.43;;;;;;;-150.07;46.05;63316.34;4993723;28;20056;-76
2022/05/20 08:32:51;;;;;;;17.52;11.98;;;;;;;-150.07;46.60;62774.19;5012431;28;20033;-77
2022/05/20 08:35:20;;;;;;;11.43;10.40;;;;;;;-150.07;46.34;62855.81;5013157;28;20026;-76
2022/05/20 08:37:49;;;;;;;11.73;10.43;;;;;;;-150.07;46.15;62914.41;5013803;28;20057;-76
2022/05/20 08:40:30;;;;;;;15.13;11.90;;;;;;;-150.07;46.22;62813.94;5013319;28;20273;-77
2022/05/20 08:43:01;;;;;;;12.15;10.93;;;;;;;-150.07;45.68;62922.78;5012839;28;20391;-75
2022/05/20 08:45:30;;;;;;;12.35;11.18;;;;;;;-150.07;45.92;62926.97;5012981;28;20025;-77
2022/05/20 08:47:58;;;;;;;13.83;12.27;;;;;;;-150.07;47.62;62864.19;5012832;28;20497;-77
2022/05/20 08:50:35;;;;;;;11.95;10.75;;;;;;;-150.07;48.57;62790.91;5011493;28;20429;-77
2022/05/20 08:53:05;;;;;;;11.13;10.02;;;;;;;-150.07;49.39;62876.75;4993145;28;20029;-76
2022/05/20 08:55:32;;;;;;;12.07;10.88;;;;;;;-150.07;49.73;63441.97;4991729;28;20042;-76
2022/05/20 08:58:01;;;;;;;15.50;10.40;;;;;;;-150.07;50.46;62659.03;4992744;28;20065;-76
2022/05/20 09:00:29;;;;;;;18.75;13.20;;;;;;;-150.07;52.81;62554.41;4992692;28;20073;-76
2022/05/20 09:02:56;;;;;;;14.40;11.45;;;;;;;-150.07;51.62;62696.72;5010076;28;20072;-75
2022/05/20 09:05:31;;;;;;;18.67;12.18;;;;;;;-150.07;50.99;62541.84;5012104;28;20467;-76
2022/05/20 09:08:03;;;;;;;12.18;10.50;;;;;;;-150.07;50.94;62705.09;5012525;28;20050;-76
2022/05/20 09:10:36;;;;;;;12.18;11.02;;;;;;;-150.07;50.72;62711.38;5011966;28;20025;-77
2022/05/20 09:13:18;;;;;;;14.15;11.07;;;;;;;-150.07;50.63;63199.13;5012067;28;20029;-77
2022/05/20 09:16:00;;;;;;;14.00;11.45;;;;;;;-150.07;50.76;62638.13;5012412;28;20112;-77
2022/05/20 09:18:30;;;;;;;13.13;11.50;;;;;;;-150.07;52.07;62661.13;5010926;28;20084;-76
2022/05/20 09:20:57;;;;;;;13.98;12.68;;;;;;;-150.07;53.04;62569.03;5010276;28;20398;-78
2022/05/20 09:23:26;;;;;;;14.63;12.98;;;;;;;-150.07;53.53;63232.63;5011941;28;20018;-77
2022/05/20 09:26:11;;;;;;;13.88;12.63;;;;;;;-150.07;53.08;62665.31;5011744;28;20799;-75
2022/05/20 09:28:39;;;;;;;15.30;13.27;;;;;;;-150.07;54.36;62600.44;5011714;28;20033;-77
2022/05/20 09:31:31;;;;;;;17.33;13.30;;;;;;;-150.07;55.71;62562.75;5011618;28;20157;-76
2022/05/20 09:34:20;;;;;;;15.73;14.27;;;;;;;-150.07;56.54;62533.47;5011823;28;20056;-75
2022/05/20 09:36:57;;;;;;;16.25;14.05;;;;;;;-150.07;57.11;62525.09;5011660;28;20083;-76
2022/05/20 09:39:41;;;;;;;15.88;14.27;;;;;;;-150.07;58.16;62529.28;5011822;28;20543;-77
2022/05/20 09:42:19;;;;;;;15.82;14.20;;;;;;;-150.07;57.95;62506.25;5011323;28;20036;-77
2022/05/20 09:44:54;;;;;;;16.05;14.50;;;;;;;-150.07;57.72;62587.88;5011681;28;20030;-77
2022/05/20 09:47:41;;;;;;;14.77;13.32;;;;;;;-150.07;57.36;62518.81;5011655;28;20045;-75
2022/05/20 09:50:26;;;;;;;18.13;13.98;;;;;;;-150.07;57.43;62504.16;5011459;28;20497;-77
2022/05/20 09:53:28;;;;;;;14.85;13.27;;;;;;;-150.07;57.61;62504.16;5011362;28;20108;-77
2022/05/20 09:56:17;;;;;;;15.07;13.63;;;;;;;-150.07;57.61;63019.09;5008475;28;20050;-77
2022/05/20 09:58:59;;;;;;;14.90;13.40;;;;;;;-150.07;57.89;62441.38;5011270;28;20069;-77
2022/05/20 10:01:30;;;;;;;15.23;13.75;;;;;;;-150.07;57.74;62472.75;5010939;28;20044;-77
2022/05/20 10:04:03;;;;;;;13.32;12.13;;;;;;;-150.07;57.36;62487.41;5011355;28;20054;-77
2022/05/20 10:06:43;;;;;;;14.80;13.30;;;;;;;-150.07;57.16;62508.34;5011446;28;20068;-77
2022/05/20 10:09:16;;;;;;;15.95;13.60;;;;;;;-150.07;57.63;62416.25;5010365;28;20041;-77
2022/05/20 10:12:07;;;;;;;14.82;13.27;;;;;;;-150.07;58.04;62495.78;5011086;28;20041;-78
2022/05/20 10:14:56;;;;;;;15.15;13.57;;;;;;;-150.07;58.37;62412.06;5011247;28;20033;-77
2022/05/20 10:17:47;;;;;;;16.48;13.98;;;;;;;-150.07;59.13;62487.41;5011171;28;20099;-77
2022/05/20 10:20:30;;;;;;;16.02;14.45;;;;;;;-150.07;60.94;62592.06;5011291;28;20060;-77
2022/05/20 10:23:21;;;;;;;19.38;16.50;;;;;;;-150.07;61.45;62374.38;5011004;28;20100;-75
2022/05/20 10:25:56;;;;;;;16.15;14.55;;;;;;;-150.07;62.23;62299.03;5010973;28;20482;-75
2022/05/20 10:34:34;;;;;;;19.95;17.92;;;;;;;-150.07;63.65;62294.84;5011375;28;20100;-77
2022/05/20 10:37:08;;;;;;;21.40;19.20;;;;;;;-150.07;64.71;62853.72;5010504;28;20030;-77
2022/05/20 10:40:24;;;;;;;23.33;17.65;;;;;;;-150.07;65.96;62211.13;5010906;28;20100;-77
2022/05/20 10:43:32;;;;;;;20.35;17.83;;;;;;;-150.07;65.99;62257.19;5010903;28;20034;-78
2022/05/20 10:49:06;;;;;;;21.52;19.30;;;;;;;-150.07;66.43;62192.31;5010577;28;20091;-75
2022/05/20 10:51:42;;;;;;;20.20;18.10;;;;;;;-150.07;66.93;62152.53;5010663;28;20116;-75
2022/05/20 10:54:27;;;;;;;24.98;20.33;;;;;;;-150.07;68.48;62177.66;5010457;28;20268;-77
2022/05/20 10:57:04;;;;;;;22.48;20.17;;;;;;;-150.07;69.09;62135.78;5010223;28;20029;-75
2022/05/20 10:59:49;;;;;;;23.90;21.60;;;;;;;-150.07;69.44;62106.50;5010412;28;20042;-75
2022/05/20 11:02:53;;;;;;;21.92;19.77;;;;;;;-150.07;69.22;62133.69;5005699;28;20104;-77
2022/05/20 11:06:01;;;;;;;24.52;22.15;;;;;;;-150.07;69.48;62127.41;5010569;28;20049;-77
2022/05/20 11:08:38;;;;;;;29.48;22.02;;;;;;;-150.07;68.94;62089.75;5010598;28;20026;-76
2022/05/20 11:11:24;;;;;;;29.08;25.92;;;;;;;-150.07;68.61;62177.66;5010734;28;20509;-83
2022/05/20 11:14:05;;;;;;;24.35;21.95;;;;;;;-150.07;67.52;62830.69;5006974;28;20029;-81
2022/05/20 11:17:05;;;;;;;25.27;21.63;;;;;;;-150.07;66.86;62726.03;5008667;28;20033;-82
2022/05/20 11:19:40;;;;;;;24.23;21.95;;;;;;;-150.07;67.31;62181.84;5009772;28;20072;-80
2022/05/20 11:22:40;;;;;;;27.23;23.77;;;;;;;-150.07;67.58;62110.69;5011911;28;20399;-81
2022/05/20 11:25:25;;;;;;;;;;;;;;;-150.07;67.03;62169.28;5015365;28;20037;-79
2022/05/20 11:28:24;;;;;;;23.48;21.10;;;;;;;-150.07;66.43;62125.31;4999506;28;19953;-79
2022/05/20 11:31:25;;;;;;;30.23;23.08;;;;;;;-150.07;66.86;62106.50;5001229;28;20041;-78
2022/05/20 11:33:57;;;;;;;22.33;20.27;;;;;;;-150.07;67.51;62052.09;5009634;28;20026;-79
2022/05/20 11:36:54;;;;;;;27.27;21.88;;;;;;;-150.07;68.52;62001.84;5010221;28;20056;-78
2022/05/20 11:39:49;;;;;;;25.88;21.77;;;;;;;-150.07;69.73;62031.16;5008559;28;20085;-79
2022/05/20 11:42:25;;;;;;;27.52;23.38;;;;;;;-150.07;70.37;62031.16;5011221;28;20038;-79
2022/05/20 11:45:43;;;;;;;;;;;;;;;;;;;;;
2022/05/20 11:48:45;;;;;;;40.65;28.83;;;;;;;-150.07;71.79;61983.00;5005488;28;20038;-80
2022/05/20 11:51:26;;;;;;;35.13;31.45;;;;;;;-150.07;72.94;61997.66;5012603;28;20050;-79
2022/05/20 11:53:56;;;;;;;36.13;32.33;;;;;;;-150.07;74.57;62669.50;5012081;28;20036;-78
2022/05/20 11:56:30;;;;;;;35.58;31.80;;;;;;;-150.07;75.55;61916.03;5013505;28;20045;-79
2022/05/20 11:59:16;;;;;;;35.38;31.65;;;;;;;-150.07;76.96;61888.84;5014564;28;21394;-79
2022/05/20 12:01:47;;;;;;;38.85;32.95;;;;;;;-150.07;77.80;61690.03;5012062;28;20050;-78
2022/05/20 12:04:17;;;;;;;40.40;33.00;;;;;;;-150.07;78.14;61842.81;5012795;28;20483;-79
2022/05/20 12:06:53;;;;;;;36.30;32.13;;;;;;;-150.07;78.92;61859.53;5007774;28;20053;-78
2022/05/20 12:09:33;;;;;;;35.30;31.48;;;;;;;-150.07;78.94;61847.00;5006672;28;20037;-79